sensor_id;sensor_type;location;lat;lon;timestamp;P1;durP1;ratioP1;P2;durP2;ratioP2
67562;SDS011;54392;53.556;49.214;2022-09-09T00:01:20;3.00;;;2.78;;
67562;SDS011;54392;53.556;49.214;2022-09-09T00:06:46;1.95;;;1.85;;
67562;SDS011;54392;53.556;49.214;2022-09-09T00:09:21;4.68;;;4.07;;
67562;SDS011;54392;53.556;49.214;2022-09-09T00:11:50;4.43;;;3.03;;
67562;SDS011;54392;53.556;49.214;2022-09-09T00:14:27;2.67;;;2.47;;
67562;SDS011;54392;53.556;49.214;2022-09-09T00:17:00;2.83;;;2.58;;
67562;SDS011;54392;53.556;49.214;2022-09-09T00:19:53;2.85;;;2.60;;
67562;SDS011;54392;53.556;49.214;2022-09-09T00:22:27;1.75;;;1.65;;
67562;SDS011;54392;53.556;49.214;2022-09-09T00:25:10;3.25;;;2.60;;
67562;SDS011;54392;53.556;49.214;2022-09-09T00:28:20;4.28;;;3.25;;
67562;SDS011;54392;53.556;49.214;2022-09-09T00:30:54;1.80;;;1.65;;
67562;SDS011;54392;53.556;49.214;2022-09-09T00:33:23;4.00;;;2.62;;
67562;SDS011;54392;53.556;49.214;2022-09-09T00:35:58;3.45;;;2.97;;
67562;SDS011;54392;53.556;49.214;2022-09-09T00:38:33;2.85;;;2.65;;
67562;SDS011;54392;53.556;49.214;2022-09-09T00:41:12;4.57;;;2.78;;
67562;SDS011;54392;53.556;49.214;2022-09-09T00:43:53;2.80;;;2.25;;
67562;SDS011;54392;53.556;49.214;2022-09-09T00:51:56;2.70;;;2.50;;
67562;SDS011;54392;53.556;49.214;2022-09-09T00:55:07;3.05;;;2.35;;
67562;SDS011;54392;53.556;49.214;2022-09-09T00:57:45;2.67;;;2.45;;
67562;SDS011;54392;53.556;49.214;2022-09-09T01:05:23;3.08;;;2.87;;
67562;SDS011;54392;53.556;49.214;2022-09-09T01:07:57;3.62;;;2.92;;
67562;SDS011;54392;53.556;49.214;2022-09-09T01:12:58;4.60;;;3.20;;
67562;SDS011;54392;53.556;49.214;2022-09-09T01:15:27;3.75;;;3.22;;
67562;SDS011;54392;53.556;49.214;2022-09-09T01:18:00;2.62;;;2.40;;
67562;SDS011;54392;53.556;49.214;2022-09-09T01:28:41;4.03;;;3.45;;
67562;SDS011;54392;53.556;49.214;2022-09-09T01:31:14;4.75;;;4.30;;
67562;SDS011;54392;53.556;49.214;2022-09-09T01:36:15;4.43;;;3.87;;
67562;SDS011;54392;53.556;49.214;2022-09-09T01:38:50;3.50;;;3.20;;
67562;SDS011;54392;53.556;49.214;2022-09-09T01:41:19;2.92;;;2.62;;
67562;SDS011;54392;53.556;49.214;2022-09-09T01:43:45;4.37;;;3.25;;
67562;SDS011;54392;53.556;49.214;2022-09-09T01:46:15;4.82;;;3.12;;
67562;SDS011;54392;53.556;49.214;2022-09-09T01:48:42;3.55;;;2.75;;
67562;SDS011;54392;53.556;49.214;2022-09-09T01:51:09;3.33;;;3.03;;
67562;SDS011;54392;53.556;49.214;2022-09-09T01:53:39;3.67;;;3.15;;
67562;SDS011;54392;53.556;49.214;2022-09-09T01:59:09;3.80;;;3.10;;
67562;SDS011;54392;53.556;49.214;2022-09-09T02:01:54;3.22;;;2.92;;
67562;SDS011;54392;53.556;49.214;2022-09-09T02:04:49;4.30;;;3.65;;
67562;SDS011;54392;53.556;49.214;2022-09-09T02:09:50;2.92;;;2.37;;
67562;SDS011;54392;53.556;49.214;2022-09-09T02:12:21;3.87;;;2.95;;
67562;SDS011;54392;53.556;49.214;2022-09-09T02:14:51;3.53;;;2.78;;
67562;SDS011;54392;53.556;49.214;2022-09-09T02:17:26;3.03;;;2.72;;
67562;SDS011;54392;53.556;49.214;2022-09-09T02:19:59;6.10;;;3.45;;
67562;SDS011;54392;53.556;49.214;2022-09-09T02:22:39;3.53;;;2.95;;
67562;SDS011;54392;53.556;49.214;2022-09-09T02:25:08;3.08;;;2.83;;
67562;SDS011;54392;53.556;49.214;2022-09-09T02:27:36;3.42;;;3.12;;
67562;SDS011;54392;53.556;49.214;2022-09-09T02:30:03;7.68;;;4.50;;
67562;SDS011;54392;53.556;49.214;2022-09-09T02:32:33;3.95;;;3.12;;
67562;SDS011;54392;53.556;49.214;2022-09-09T02:35:05;3.35;;;2.83;;
67562;SDS011;54392;53.556;49.214;2022-09-09T02:37:38;4.55;;;3.87;;
67562;SDS011;54392;53.556;49.214;2022-09-09T02:40:06;3.50;;;3.20;;
67562;SDS011;54392;53.556;49.214;2022-09-09T02:42:43;4.70;;;4.05;;
67562;SDS011;54392;53.556;49.214;2022-09-09T02:45:16;4.60;;;2.65;;
67562;SDS011;54392;53.556;49.214;2022-09-09T02:48:34;5.90;;;3.25;;
67562;SDS011;54392;53.556;49.214;2022-09-09T02:53:30;5.03;;;3.78;;
67562;SDS011;54392;53.556;49.214;2022-09-09T02:56:27;12.13;;;4.57;;
67562;SDS011;54392;53.556;49.214;2022-09-09T02:58:58;6.03;;;5.20;;
67562;SDS011;54392;53.556;49.214;2022-09-09T03:01:24;4.53;;;4.05;;
67562;SDS011;54392;53.556;49.214;2022-09-09T03:03:50;4.03;;;3.58;;
67562;SDS011;54392;53.556;49.214;2022-09-09T03:06:17;5.65;;;5.10;;
67562;SDS011;54392;53.556;49.214;2022-09-09T03:08:46;5.87;;;4.65;;
67562;SDS011;54392;53.556;49.214;2022-09-09T03:11:15;5.95;;;4.55;;
67562;SDS011;54392;53.556;49.214;2022-09-09T03:13:42;5.12;;;3.67;;
67562;SDS011;54392;53.556;49.214;2022-09-09T03:16:09;5.53;;;4.45;;
67562;SDS011;54392;53.556;49.214;2022-09-09T03:18:37;4.68;;;3.78;;
67562;SDS011;54392;53.556;49.214;2022-09-09T03:21:03;4.93;;;3.65;;
67562;SDS011;54392;53.556;49.214;2022-09-09T03:23:33;3.12;;;2.87;;
67562;SDS011;54392;53.556;49.214;2022-09-09T03:26:03;4.80;;;3.83;;
67562;SDS011;54392;53.556;49.214;2022-09-09T03:28:41;5.18;;;3.83;;
67562;SDS011;54392;53.556;49.214;2022-09-09T03:31:12;7.20;;;4.82;;
67562;SDS011;54392;53.556;49.214;2022-09-09T03:33:38;4.60;;;4.15;;
67562;SDS011;54392;53.556;49.214;2022-09-09T03:36:11;17.65;;;4.82;;
67562;SDS011;54392;53.556;49.214;2022-09-09T03:38:43;4.37;;;3.95;;
67562;SDS011;54392;53.556;49.214;2022-09-09T03:41:12;7.03;;;5.90;;
67562;SDS011;54392;53.556;49.214;2022-09-09T03:43:38;7.30;;;4.07;;
67562;SDS011;54392;53.556;49.214;2022-09-09T03:46:05;5.25;;;3.95;;
67562;SDS011;54392;53.556;49.214;2022-09-09T03:48:31;6.53;;;5.82;;
67562;SDS011;54392;53.556;49.214;2022-09-09T03:50:58;4.40;;;4.00;;
67562;SDS011;54392;53.556;49.214;2022-09-09T03:53:28;6.10;;;4.72;;
67562;SDS011;54392;53.556;49.214;2022-09-09T03:56:05;8.73;;;4.97;;
67562;SDS011;54392;53.556;49.214;2022-09-09T03:58:44;9.82;;;4.75;;
67562;SDS011;54392;53.556;49.214;2022-09-09T04:01:13;4.70;;;4.30;;
67562;SDS011;54392;53.556;49.214;2022-09-09T04:03:44;5.40;;;4.80;;
67562;SDS011;54392;53.556;49.214;2022-09-09T04:06:13;6.07;;;4.60;;
67562;SDS011;54392;53.556;49.214;2022-09-09T04:08:40;3.95;;;3.53;;
67562;SDS011;54392;53.556;49.214;2022-09-09T04:11:07;4.35;;;3.40;;
67562;SDS011;54392;53.556;49.214;2022-09-09T04:13:36;4.32;;;3.65;;
67562;SDS011;54392;53.556;49.214;2022-09-09T04:16:04;4.03;;;3.62;;
67562;SDS011;54392;53.556;49.214;2022-09-09T04:18:33;3.25;;;2.95;;
67562;SDS011;54392;53.556;49.214;2022-09-09T04:21:03;5.05;;;3.92;;
67562;SDS011;54392;53.556;49.214;2022-09-09T04:23:30;3.83;;;3.17;;
67562;SDS011;54392;53.556;49.214;2022-09-09T04:25:57;7.53;;;2.33;;
67562;SDS011;54392;53.556;49.214;2022-09-09T04:28:29;3.83;;;2.40;;
67562;SDS011;54392;53.556;49.214;2022-09-09T04:30:56;2.87;;;2.67;;
67562;SDS011;54392;53.556;49.214;2022-09-09T04:33:26;4.05;;;3.55;;
67562;SDS011;54392;53.556;49.214;2022-09-09T04:35:52;2.97;;;2.65;;
67562;SDS011;54392;53.556;49.214;2022-09-09T04:38:22;4.05;;;3.65;;
67562;SDS011;54392;53.556;49.214;2022-09-09T04:40:50;4.62;;;3.05;;
67562;SDS011;54392;53.556;49.214;2022-09-09T04:43:17;3.78;;;3.40;;
67562;SDS011;54392;53.556;49.214;2022-09-09T04:45:46;4.87;;;3.50;;
67562;SDS011;54392;53.556;49.214;2022-09-09T04:48:20;4.40;;;3.12;;
67562;SDS011;54392;53.556;49.214;2022-09-09T04:51:05;3.20;;;2.72;;
67562;SDS011;54392;53.556;49.214;2022-09-09T04:53:32;2.67;;;2.47;;
67562;SDS011;54392;53.556;49.214;2022-09-09T04:56:02;3.33;;;2.67;;
67562;SDS011;54392;53.556;49.214;2022-09-09T04:58:30;2.87;;;2.67;;
67562;SDS011;54392;53.556;49.214;2022-09-09T05:03:46;2.97;;;2.53;;
67562;SDS011;54392;53.556;49.214;2022-09-09T05:06:14;3.42;;;2.85;;
67562;SDS011;54392;53.556;49.214;2022-09-09T05:08:44;3.58;;;2.80;;
67562;SDS011;54392;53.556;49.214;2022-09-09T05:11:18;4.72;;;2.33;;
67562;SDS011;54392;53.556;49.214;2022-09-09T05:13:47;2.90;;;2.67;;
67562;SDS011;54392;53.556;49.214;2022-09-09T05:16:15;2.42;;;1.87;;
67562;SDS011;54392;53.556;49.214;2022-09-09T05:18:48;4.30;;;3.12;;
67562;SDS011;54392;53.556;49.214;2022-09-09T05:21:16;2.50;;;2.20;;
67562;SDS011;54392;53.556;49.214;2022-09-09T05:23:44;2.75;;;2.25;;
67562;SDS011;54392;53.556;49.214;2022-09-09T05:26:14;3.12;;;2.80;;
67562;SDS011;54392;53.556;49.214;2022-09-09T05:28:41;2.47;;;2.20;;
67562;SDS011;54392;53.556;49.214;2022-09-09T05:31:09;3.25;;;2.95;;
67562;SDS011;54392;53.556;49.214;2022-09-09T05:33:39;2.17;;;1.95;;
67562;SDS011;54392;53.556;49.214;2022-09-09T05:36:09;2.67;;;2.47;;
67562;SDS011;54392;53.556;49.214;2022-09-09T05:38:38;2.42;;;2.20;;
67562;SDS011;54392;53.556;49.214;2022-09-09T05:41:10;3.80;;;3.40;;
67562;SDS011;54392;53.556;49.214;2022-09-09T05:43:37;7.22;;;3.20;;
67562;SDS011;54392;53.556;49.214;2022-09-09T05:46:11;3.35;;;3.10;;
67562;SDS011;54392;53.556;49.214;2022-09-09T05:48:39;6.57;;;3.00;;
67562;SDS011;54392;53.556;49.214;2022-09-09T05:51:10;2.72;;;2.53;;
67562;SDS011;54392;53.556;49.214;2022-09-09T05:53:49;3.37;;;2.03;;
67562;SDS011;54392;53.556;49.214;2022-09-09T05:56:17;3.05;;;2.62;;
67562;SDS011;54392;53.556;49.214;2022-09-09T05:58:44;2.47;;;2.28;;
67562;SDS011;54392;53.556;49.214;2022-09-09T06:01:18;2.35;;;2.20;;
67562;SDS011;54392;53.556;49.214;2022-09-09T06:03:46;1.40;;;1.30;;
67562;SDS011;54392;53.556;49.214;2022-09-09T06:06:14;2.67;;;2.20;;
67562;SDS011;54392;53.556;49.214;2022-09-09T06:08:43;8.60;;;3.37;;
67562;SDS011;54392;53.556;49.214;2022-09-09T06:13:44;2.17;;;1.70;;
67562;SDS011;54392;53.556;49.214;2022-09-09T06:16:16;1.70;;;1.30;;
67562;SDS011;54392;53.556;49.214;2022-09-09T06:18:43;2.53;;;1.80;;
67562;SDS011;54392;53.556;49.214;2022-09-09T06:21:17;1.90;;;1.80;;
67562;SDS011;54392;53.556;49.214;2022-09-09T06:23:46;1.12;;;1.02;;
67562;SDS011;54392;53.556;49.214;2022-09-09T06:28:40;0.90;;;0.70;;
67562;SDS011;54392;53.556;49.214;2022-09-09T06:31:12;0.90;;;0.90;;
67562;SDS011;54392;53.556;49.214;2022-09-09T06:33:45;1.67;;;1.58;;
67562;SDS011;54392;53.556;49.214;2022-09-09T06:36:15;1.62;;;1.35;;
67562;SDS011;54392;53.556;49.214;2022-09-09T06:38:46;1.65;;;1.02;;
67562;SDS011;54392;53.556;49.214;2022-09-09T06:41:15;1.55;;;1.45;;
67562;SDS011;54392;53.556;49.214;2022-09-09T06:43:45;1.27;;;1.20;;
67562;SDS011;54392;53.556;49.214;2022-09-09T06:46:13;2.20;;;1.60;;
67562;SDS011;54392;53.556;49.214;2022-09-09T06:48:43;2.12;;;1.30;;
67562;SDS011;54392;53.556;49.214;2022-09-09T06:51:18;1.62;;;1.50;;
67562;SDS011;54392;53.556;49.214;2022-09-09T06:53:56;0.98;;;0.98;;
67562;SDS011;54392;53.556;49.214;2022-09-09T06:56:28;0.98;;;0.93;;
67562;SDS011;54392;53.556;49.214;2022-09-09T06:58:56;0.70;;;0.70;;
67562;SDS011;54392;53.556;49.214;2022-09-09T07:01:38;2.15;;;1.85;;
67562;SDS011;54392;53.556;49.214;2022-09-09T07:04:08;0.98;;;0.98;;
67562;SDS011;54392;53.556;49.214;2022-09-09T07:06:41;1.00;;;1.00;;
67562;SDS011;54392;53.556;49.214;2022-09-09T07:09:10;1.42;;;1.33;;
67562;SDS011;54392;53.556;49.214;2022-09-09T07:11:41;1.15;;;1.12;;
67562;SDS011;54392;53.556;49.214;2022-09-09T07:14:16;1.30;;;1.20;;
67562;SDS011;54392;53.556;49.214;2022-09-09T07:16:44;1.90;;;1.67;;
67562;SDS011;54392;53.556;49.214;2022-09-09T07:19:14;1.30;;;1.00;;
67562;SDS011;54392;53.556;49.214;2022-09-09T07:21:40;1.00;;;1.00;;
67562;SDS011;54392;53.556;49.214;2022-09-09T07:24:10;1.00;;;0.90;;
67562;SDS011;54392;53.556;49.214;2022-09-09T07:26:37;1.65;;;1.00;;
67562;SDS011;54392;53.556;49.214;2022-09-09T07:29:09;1.17;;;1.08;;
67562;SDS011;54392;53.556;49.214;2022-09-09T07:31:42;1.00;;;1.00;;
67562;SDS011;54392;53.556;49.214;2022-09-09T07:34:17;1.25;;;1.10;;
67562;SDS011;54392;53.556;49.214;2022-09-09T07:36:51;0.80;;;0.80;;
67562;SDS011;54392;53.556;49.214;2022-09-09T07:39:18;0.60;;;0.60;;
67562;SDS011;54392;53.556;49.214;2022-09-09T07:41:52;4.25;;;1.40;;
67562;SDS011;54392;53.556;49.214;2022-09-09T07:44:26;0.90;;;0.80;;
67562;SDS011;54392;53.556;49.214;2022-09-09T07:46:57;4.53;;;1.60;;
67562;SDS011;54392;53.556;49.214;2022-09-09T07:49:26;1.50;;;1.40;;
67562;SDS011;54392;53.556;49.214;2022-09-09T07:52:01;1.23;;;0.90;;
67562;SDS011;54392;53.556;49.214;2022-09-09T07:54:50;1.45;;;1.35;;
67562;SDS011;54392;53.556;49.214;2022-09-09T07:57:21;0.80;;;0.80;;
67562;SDS011;54392;53.556;49.214;2022-09-09T07:59:55;1.17;;;0.85;;
67562;SDS011;54392;53.556;49.214;2022-09-09T08:02:38;1.90;;;1.08;;
67562;SDS011;54392;53.556;49.214;2022-09-09T08:05:07;1.65;;;1.42;;
67562;SDS011;54392;53.556;49.214;2022-09-09T08:07:36;2.05;;;1.50;;
67562;SDS011;54392;53.556;49.214;2022-09-09T08:10:07;0.80;;;0.80;;
67562;SDS011;54392;53.556;49.214;2022-09-09T08:12:39;2.53;;;2.20;;
67562;SDS011;54392;53.556;49.214;2022-09-09T08:15:06;1.30;;;1.20;;
67562;SDS011;54392;53.556;49.214;2022-09-09T08:17:33;1.50;;;1.40;;
67562;SDS011;54392;53.556;49.214;2022-09-09T08:20:03;9.23;;;2.00;;
67562;SDS011;54392;53.556;49.214;2022-09-09T08:22:33;10.27;;;2.03;;
67562;SDS011;54392;53.556;49.214;2022-09-09T08:24:59;0.88;;;0.88;;
67562;SDS011;54392;53.556;49.214;2022-09-09T08:27:25;1.40;;;1.23;;
67562;SDS011;54392;53.556;49.214;2022-09-09T08:29:52;1.85;;;1.30;;
67562;SDS011;54392;53.556;49.214;2022-09-09T08:32:21;0.65;;;0.65;;
67562;SDS011;54392;53.556;49.214;2022-09-09T08:34:51;1.30;;;1.20;;
67562;SDS011;54392;53.556;49.214;2022-09-09T08:37:20;4.55;;;1.55;;
67562;SDS011;54392;53.556;49.214;2022-09-09T08:39:52;0.95;;;0.95;;
67562;SDS011;54392;53.556;49.214;2022-09-09T08:42:24;0.75;;;0.75;;
67562;SDS011;54392;53.556;49.214;2022-09-09T08:45:03;0.77;;;0.77;;
67562;SDS011;54392;53.556;49.214;2022-09-09T08:47:51;0.73;;;0.73;;
67562;SDS011;54392;53.556;49.214;2022-09-09T08:50:38;0.68;;;0.68;;
67562;SDS011;54392;53.556;49.214;2022-09-09T08:53:22;1.87;;;0.70;;
67562;SDS011;54392;53.556;49.214;2022-09-09T08:56:09;1.40;;;1.30;;
67562;SDS011;54392;53.556;49.214;2022-09-09T08:58:46;0.43;;;0.43;;
67562;SDS011;54392;53.556;49.214;2022-09-09T09:01:33;0.45;;;0.45;;
67562;SDS011;54392;53.556;49.214;2022-09-09T09:07:08;1.10;;;0.98;;
67562;SDS011;54392;53.556;49.214;2022-09-09T09:10:07;1.15;;;1.10;;
67562;SDS011;54392;53.556;49.214;2022-09-09T09:13:02;0.95;;;0.95;;
67562;SDS011;54392;53.556;49.214;2022-09-09T09:15:31;0.57;;;0.57;;
67562;SDS011;54392;53.556;49.214;2022-09-09T09:18:03;0.68;;;0.68;;
67562;SDS011;54392;53.556;49.214;2022-09-09T09:20:54;0.50;;;0.50;;
67562;SDS011;54392;53.556;49.214;2022-09-09T09:23:24;0.70;;;0.70;;
67562;SDS011;54392;53.556;49.214;2022-09-09T09:25:55;0.60;;;0.60;;
67562;SDS011;54392;53.556;49.214;2022-09-09T09:28:26;0.60;;;0.60;;
67562;SDS011;54392;53.556;49.214;2022-09-09T09:30:55;1.45;;;1.05;;
67562;SDS011;54392;53.556;49.214;2022-09-09T09:36:19;0.60;;;0.60;;
67562;SDS011;54392;53.556;49.214;2022-09-09T09:39:06;0.75;;;0.70;;
67562;SDS011;54392;53.556;49.214;2022-09-09T09:41:36;0.30;;;0.30;;
67562;SDS011;54392;53.556;49.214;2022-09-09T09:44:04;0.40;;;0.40;;
67562;SDS011;54392;53.556;49.214;2022-09-09T09:46:31;0.77;;;0.77;;
67562;SDS011;54392;53.556;49.214;2022-09-09T09:48:58;0.47;;;0.47;;
67562;SDS011;54392;53.556;49.214;2022-09-09T09:51:25;1.85;;;1.23;;
67562;SDS011;54392;53.556;49.214;2022-09-09T09:53:51;1.05;;;0.95;;
67562;SDS011;54392;53.556;49.214;2022-09-09T09:56:26;1.10;;;0.68;;
67562;SDS011;54392;53.556;49.214;2022-09-09T09:58:54;0.80;;;0.80;;
67562;SDS011;54392;53.556;49.214;2022-09-09T10:01:27;0.73;;;0.70;;
67562;SDS011;54392;53.556;49.214;2022-09-09T10:04:19;1.12;;;1.00;;
67562;SDS011;54392;53.556;49.214;2022-09-09T10:06:49;0.80;;;0.80;;
67562;SDS011;54392;53.556;49.214;2022-09-09T10:09:25;0.77;;;0.68;;
67562;SDS011;54392;53.556;49.214;2022-09-09T10:14:50;0.60;;;0.60;;
67562;SDS011;54392;53.556;49.214;2022-09-09T10:20:41;1.10;;;1.10;;
67562;SDS011;54392;53.556;49.214;2022-09-09T10:26:10;1.15;;;0.90;;
67562;SDS011;54392;53.556;49.214;2022-09-09T10:29:10;0.93;;;0.85;;
67562;SDS011;54392;53.556;49.214;2022-09-09T10:31:52;1.58;;;1.20;;
67562;SDS011;54392;53.556;49.214;2022-09-09T10:40:19;1.20;;;0.70;;
67562;SDS011;54392;53.556;49.214;2022-09-09T10:42:54;1.37;;;1.27;;
67562;SDS011;54392;53.556;49.214;2022-09-09T10:45:32;0.80;;;0.80;;
67562;SDS011;54392;53.556;49.214;2022-09-09T10:50:56;0.93;;;0.85;;
67562;SDS011;54392;53.556;49.214;2022-09-09T10:56:13;0.80;;;0.80;;
67562;SDS011;54392;53.556;49.214;2022-09-09T10:58:44;0.70;;;0.70;;
67562;SDS011;54392;53.556;49.214;2022-09-09T11:01:28;0.62;;;0.62;;
67562;SDS011;54392;53.556;49.214;2022-09-09T11:04:01;1.65;;;0.95;;
67562;SDS011;54392;53.556;49.214;2022-09-09T11:06:39;4.05;;;0.65;;
67562;SDS011;54392;53.556;49.214;2022-09-09T11:09:09;0.85;;;0.77;;
67562;SDS011;54392;53.556;49.214;2022-09-09T11:11:49;1.05;;;0.82;;
67562;SDS011;54392;53.556;49.214;2022-09-09T11:14:26;0.60;;;0.60;;
67562;SDS011;54392;53.556;49.214;2022-09-09T11:16:58;3.75;;;1.25;;
67562;SDS011;54392;53.556;49.214;2022-09-09T11:19:31;0.70;;;0.70;;
67562;SDS011;54392;53.556;49.214;2022-09-09T11:22:07;0.62;;;0.62;;
67562;SDS011;54392;53.556;49.214;2022-09-09T11:25:01;1.02;;;0.93;;
67562;SDS011;54392;53.556;49.214;2022-09-09T11:39:22;1.30;;;1.20;;
67562;SDS011;54392;53.556;49.214;2022-09-09T11:44:40;1.08;;;0.90;;
67562;SDS011;54392;53.556;49.214;2022-09-09T11:47:21;0.43;;;0.43;;
67562;SDS011;54392;53.556;49.214;2022-09-09T11:52:45;0.90;;;0.73;;
67562;SDS011;54392;53.556;49.214;2022-09-09T11:55:24;0.90;;;0.90;;
67562;SDS011;54392;53.556;49.214;2022-09-09T11:58:06;0.70;;;0.52;;
67562;SDS011;54392;53.556;49.214;2022-09-09T12:00:43;5.10;;;1.10;;
67562;SDS011;54392;53.556;49.214;2022-09-09T12:03:31;0.60;;;0.60;;
67562;SDS011;54392;53.556;49.214;2022-09-09T12:06:41;0.55;;;0.55;;
67562;SDS011;54392;53.556;49.214;2022-09-09T12:09:08;1.23;;;0.90;;
67562;SDS011;54392;53.556;49.214;2022-09-09T12:11:41;3.03;;;1.20;;
67562;SDS011;54392;53.556;49.214;2022-09-09T12:14:21;0.62;;;0.62;;
67562;SDS011;54392;53.556;49.214;2022-09-09T12:16:49;1.10;;;1.00;;
67562;SDS011;54392;53.556;49.214;2022-09-09T12:19:19;0.75;;;0.75;;
67562;SDS011;54392;53.556;49.214;2022-09-09T12:24:46;0.80;;;0.80;;
67562;SDS011;54392;53.556;49.214;2022-09-09T12:27:31;0.40;;;0.40;;
67562;SDS011;54392;53.556;49.214;2022-09-09T12:30:09;0.52;;;0.52;;
67562;SDS011;54392;53.556;49.214;2022-09-09T12:32:37;0.60;;;0.60;;
67562;SDS011;54392;53.556;49.214;2022-09-09T12:35:19;1.52;;;1.42;;
67562;SDS011;54392;53.556;49.214;2022-09-09T12:37:51;0.45;;;0.45;;
67562;SDS011;54392;53.556;49.214;2022-09-09T12:40:23;0.80;;;0.80;;
67562;SDS011;54392;53.556;49.214;2022-09-09T12:42:53;1.90;;;1.80;;
67562;SDS011;54392;53.556;49.214;2022-09-09T12:45:21;2.05;;;0.90;;
67562;SDS011;54392;53.556;49.214;2022-09-09T12:48:03;4.35;;;1.30;;
67562;SDS011;54392;53.556;49.214;2022-09-09T12:50:34;0.60;;;0.60;;
67562;SDS011;54392;53.556;49.214;2022-09-09T12:53:08;0.60;;;0.60;;
67562;SDS011;54392;53.556;49.214;2022-09-09T12:55:38;1.10;;;1.00;;
67562;SDS011;54392;53.556;49.214;2022-09-09T12:58:11;3.12;;;1.05;;
67562;SDS011;54392;53.556;49.214;2022-09-09T13:00:51;1.45;;;0.75;;
67562;SDS011;54392;53.556;49.214;2022-09-09T13:03:21;2.30;;;1.05;;
67562;SDS011;54392;53.556;49.214;2022-09-09T13:05:48;1.10;;;1.00;;
67562;SDS011;54392;53.556;49.214;2022-09-09T13:08:15;1.00;;;0.95;;
67562;SDS011;54392;53.556;49.214;2022-09-09T13:13:38;0.62;;;0.62;;
67562;SDS011;54392;53.556;49.214;2022-09-09T13:16:15;0.68;;;0.68;;
67562;SDS011;54392;53.556;49.214;2022-09-09T13:18:57;1.15;;;1.05;;
67562;SDS011;54392;53.556;49.214;2022-09-09T13:21:32;0.65;;;0.65;;
67562;SDS011;54392;53.556;49.214;2022-09-09T13:24:03;0.80;;;0.80;;
67562;SDS011;54392;53.556;49.214;2022-09-09T13:26:35;0.95;;;0.90;;
67562;SDS011;54392;53.556;49.214;2022-09-09T13:29:18;0.80;;;0.80;;
67562;SDS011;54392;53.556;49.214;2022-09-09T13:31:44;0.95;;;0.95;;
67562;SDS011;54392;53.556;49.214;2022-09-09T13:34:12;1.08;;;1.05;;
67562;SDS011;54392;53.556;49.214;2022-09-09T13:36:58;0.93;;;0.93;;
67562;SDS011;54392;53.556;49.214;2022-09-09T13:39:32;1.08;;;0.98;;
67562;SDS011;54392;53.556;49.214;2022-09-09T13:41:59;0.85;;;0.85;;
67562;SDS011;54392;53.556;49.214;2022-09-09T13:44:27;2.42;;;1.40;;
67562;SDS011;54392;53.556;49.214;2022-09-09T13:46:59;0.88;;;0.88;;
67562;SDS011;54392;53.556;49.214;2022-09-09T13:49:27;1.00;;;0.93;;
67562;SDS011;54392;53.556;49.214;2022-09-09T13:52:03;0.80;;;0.80;;
67562;SDS011;54392;53.556;49.214;2022-09-09T13:54:31;1.08;;;0.98;;
67562;SDS011;54392;53.556;49.214;2022-09-09T13:56:57;0.90;;;0.90;;
67562;SDS011;54392;53.556;49.214;2022-09-09T13:59:24;1.45;;;1.35;;
67562;SDS011;54392;53.556;49.214;2022-09-09T14:01:52;1.05;;;0.95;;
67562;SDS011;54392;53.556;49.214;2022-09-09T14:04:19;1.08;;;1.08;;
67562;SDS011;54392;53.556;49.214;2022-09-09T14:06:57;1.75;;;0.98;;
67562;SDS011;54392;53.556;49.214;2022-09-09T14:09:24;0.60;;;0.60;;
67562;SDS011;54392;53.556;49.214;2022-09-09T14:11:50;3.10;;;1.30;;
67562;SDS011;54392;53.556;49.214;2022-09-09T14:14:19;0.70;;;0.70;;
67562;SDS011;54392;53.556;49.214;2022-09-09T14:16:46;0.85;;;0.85;;
67562;SDS011;54392;53.556;49.214;2022-09-09T14:19:12;0.82;;;0.80;;
67562;SDS011;54392;53.556;49.214;2022-09-09T14:21:38;0.95;;;0.95;;
67562;SDS011;54392;53.556;49.214;2022-09-09T14:24:05;0.37;;;0.37;;
67562;SDS011;54392;53.556;49.214;2022-09-09T14:26:34;11.52;;;1.40;;
67562;SDS011;54392;53.556;49.214;2022-09-09T14:29:00;0.60;;;0.60;;
67562;SDS011;54392;53.556;49.214;2022-09-09T14:31:26;1.02;;;0.95;;
67562;SDS011;54392;53.556;49.214;2022-09-09T14:33:52;0.90;;;0.90;;
67562;SDS011;54392;53.556;49.214;2022-09-09T14:36:18;0.70;;;0.70;;
67562;SDS011;54392;53.556;49.214;2022-09-09T14:38:46;0.47;;;0.47;;
67562;SDS011;54392;53.556;49.214;2022-09-09T14:41:16;1.08;;;1.08;;
67562;SDS011;54392;53.556;49.214;2022-09-09T14:43:44;0.60;;;0.60;;
67562;SDS011;54392;53.556;49.214;2022-09-09T14:46:11;2.85;;;1.62;;
67562;SDS011;54392;53.556;49.214;2022-09-09T14:48:41;2.33;;;1.55;;
67562;SDS011;54392;53.556;49.214;2022-09-09T14:51:08;0.75;;;0.75;;
67562;SDS011;54392;53.556;49.214;2022-09-09T14:53:36;5.82;;;1.33;;
67562;SDS011;54392;53.556;49.214;2022-09-09T14:56:05;1.02;;;0.88;;
67562;SDS011;54392;53.556;49.214;2022-09-09T14:58:34;0.50;;;0.50;;
67562;SDS011;54392;53.556;49.214;2022-09-09T15:01:02;1.12;;;0.60;;
67562;SDS011;54392;53.556;49.214;2022-09-09T15:03:39;0.95;;;0.85;;
67562;SDS011;54392;53.556;49.214;2022-09-09T15:06:09;0.60;;;0.60;;
67562;SDS011;54392;53.556;49.214;2022-09-09T15:08:37;0.50;;;0.50;;
67562;SDS011;54392;53.556;49.214;2022-09-09T15:11:10;0.60;;;0.60;;
67562;SDS011;54392;53.556;49.214;2022-09-09T15:13:37;0.45;;;0.45;;
67562;SDS011;54392;53.556;49.214;2022-09-09T15:16:07;0.80;;;0.80;;
67562;SDS011;54392;53.556;49.214;2022-09-09T15:18:34;0.47;;;0.47;;
67562;SDS011;54392;53.556;49.214;2022-09-09T15:21:11;0.62;;;0.62;;
67562;SDS011;54392;53.556;49.214;2022-09-09T15:23:38;2.50;;;1.20;;
67562;SDS011;54392;53.556;49.214;2022-09-09T15:26:05;0.62;;;0.62;;
67562;SDS011;54392;53.556;49.214;2022-09-09T15:28:32;1.50;;;1.10;;
67562;SDS011;54392;53.556;49.214;2022-09-09T15:31:16;0.98;;;0.80;;
67562;SDS011;54392;53.556;49.214;2022-09-09T15:33:49;0.98;;;0.95;;
67562;SDS011;54392;53.556;49.214;2022-09-09T15:36:21;0.93;;;0.93;;
67562;SDS011;54392;53.556;49.214;2022-09-09T15:38:48;0.77;;;0.77;;
67562;SDS011;54392;53.556;49.214;2022-09-09T15:41:15;0.98;;;0.98;;
67562;SDS011;54392;53.556;49.214;2022-09-09T15:43:42;1.17;;;1.08;;
67562;SDS011;54392;53.556;49.214;2022-09-09T15:49:05;1.20;;;0.85;;
67562;SDS011;54392;53.556;49.214;2022-09-09T15:51:34;1.12;;;1.02;;
67562;SDS011;54392;53.556;49.214;2022-09-09T15:54:02;0.73;;;0.73;;
67562;SDS011;54392;53.556;49.214;2022-09-09T15:56:37;1.75;;;1.48;;
67562;SDS011;54392;53.556;49.214;2022-09-09T15:59:03;1.20;;;1.10;;
67562;SDS011;54392;53.556;49.214;2022-09-09T16:01:31;1.30;;;1.20;;
67562;SDS011;54392;53.556;49.214;2022-09-09T16:03:58;1.77;;;1.67;;
67562;SDS011;54392;53.556;49.214;2022-09-09T16:06:25;1.27;;;1.27;;
67562;SDS011;54392;53.556;49.214;2022-09-09T16:08:56;1.92;;;1.77;;
67562;SDS011;54392;53.556;49.214;2022-09-09T16:11:33;2.62;;;1.35;;
67562;SDS011;54392;53.556;49.214;2022-09-09T16:14:01;1.20;;;1.05;;
67562;SDS011;54392;53.556;49.214;2022-09-09T16:16:29;1.52;;;1.08;;
67562;SDS011;54392;53.556;49.214;2022-09-09T16:18:57;1.92;;;1.25;;
67562;SDS011;54392;53.556;49.214;2022-09-09T16:21:28;3.17;;;2.42;;
67562;SDS011;54392;53.556;49.214;2022-09-09T16:24:00;1.30;;;1.20;;
67562;SDS011;54392;53.556;49.214;2022-09-09T16:26:28;2.15;;;1.25;;
67562;SDS011;54392;53.556;49.214;2022-09-09T16:28:59;1.17;;;1.15;;
67562;SDS011;54392;53.556;49.214;2022-09-09T16:31:27;1.67;;;1.45;;
67562;SDS011;54392;53.556;49.214;2022-09-09T16:33:54;1.48;;;1.37;;
67562;SDS011;54392;53.556;49.214;2022-09-09T16:36:27;1.08;;;0.98;;
67562;SDS011;54392;53.556;49.214;2022-09-09T16:39:01;1.27;;;1.17;;